sensor_id;sensor_type;location;lat;lon;timestamp;temperature;humidity
48589;DHT22;34369;51.174;6.738;2022-08-24T00:00:06;19.30;71.30
48589;DHT22;34369;51.174;6.738;2022-08-24T00:02:42;19.30;71.60
48589;DHT22;34369;51.174;6.738;2022-08-24T00:05:15;19.20;72.20
48589;DHT22;34369;51.174;6.738;2022-08-24T00:07:50;19.20;72.40
48589;DHT22;34369;51.174;6.738;2022-08-24T00:10:24;19.20;72.40
48589;DHT22;34369;51.174;6.738;2022-08-24T00:12:57;19.20;72.40
48589;DHT22;34369;51.174;6.738;2022-08-24T00:15:29;19.20;72.70
48589;DHT22;34369;51.174;6.738;2022-08-24T00:18:01;19.20;73.00
48589;DHT22;34369;51.174;6.738;2022-08-24T00:20:33;19.10;73.10
48589;DHT22;34369;51.174;6.738;2022-08-24T00:23:05;19.10;72.60
48589;DHT22;34369;51.174;6.738;2022-08-24T00:25:39;19.10;72.90
48589;DHT22;34369;51.174;6.738;2022-08-24T00:28:11;19.00;73.60
48589;DHT22;34369;51.174;6.738;2022-08-24T00:30:43;19.00;73.40
48589;DHT22;34369;51.174;6.738;2022-08-24T00:33:15;19.00;73.40
48589;DHT22;34369;51.174;6.738;2022-08-24T00:35:48;19.00;73.20
48589;DHT22;34369;51.174;6.738;2022-08-24T00:38:20;18.90;73.40
48589;DHT22;34369;51.174;6.738;2022-08-24T00:40:53;18.90;73.80
48589;DHT22;34369;51.174;6.738;2022-08-24T00:43:26;18.90;73.50
48589;DHT22;34369;51.174;6.738;2022-08-24T00:46:10;18.90;73.90
48589;DHT22;34369;51.174;6.738;2022-08-24T00:48:48;18.90;74.20
48589;DHT22;34369;51.174;6.738;2022-08-24T00:51:25;18.80;74.00
48589;DHT22;34369;51.174;6.738;2022-08-24T00:54:04;18.80;74.40
48589;DHT22;34369;51.174;6.738;2022-08-24T00:56:45;18.80;74.80
48589;DHT22;34369;51.174;6.738;2022-08-24T00:59:22;18.70;74.60
48589;DHT22;34369;51.174;6.738;2022-08-24T01:01:58;18.70;74.60
48589;DHT22;34369;51.174;6.738;2022-08-24T01:04:37;18.70;74.00
48589;DHT22;34369;51.174;6.738;2022-08-24T01:07:13;18.60;74.00
48589;DHT22;34369;51.174;6.738;2022-08-24T01:09:45;18.70;74.10
48589;DHT22;34369;51.174;6.738;2022-08-24T01:12:19;18.60;74.40
48589;DHT22;34369;51.174;6.738;2022-08-24T01:14:52;18.60;75.10
48589;DHT22;34369;51.174;6.738;2022-08-24T01:17:24;18.60;74.50
48589;DHT22;34369;51.174;6.738;2022-08-24T01:20:14;18.50;74.70
48589;DHT22;34369;51.174;6.738;2022-08-24T01:22:56;18.50;74.50
48589;DHT22;34369;51.174;6.738;2022-08-24T01:25:34;18.50;74.90
48589;DHT22;34369;51.174;6.738;2022-08-24T01:28:10;18.50;75.50
48589;DHT22;34369;51.174;6.738;2022-08-24T01:30:44;18.50;75.50
48589;DHT22;34369;51.174;6.738;2022-08-24T01:33:23;18.40;75.90
48589;DHT22;34369;51.174;6.738;2022-08-24T01:36:00;18.40;76.00
48589;DHT22;34369;51.174;6.738;2022-08-24T01:38:34;18.40;75.70
48589;DHT22;34369;51.174;6.738;2022-08-24T01:41:07;18.40;76.10
48589;DHT22;34369;51.174;6.738;2022-08-24T01:43:40;18.30;76.20
48589;DHT22;34369;51.174;6.738;2022-08-24T01:46:12;18.30;76.10
48589;DHT22;34369;51.174;6.738;2022-08-24T01:48:46;18.30;76.60
48589;DHT22;34369;51.174;6.738;2022-08-24T01:51:19;18.30;76.40
48589;DHT22;34369;51.174;6.738;2022-08-24T01:53:52;18.20;76.30
48589;DHT22;34369;51.174;6.738;2022-08-24T01:56:25;18.20;76.50
48589;DHT22;34369;51.174;6.738;2022-08-24T01:58:58;17.00;75.30
48589;DHT22;34369;51.174;6.738;2022-08-24T02:01:33;18.10;76.60
48589;DHT22;34369;51.174;6.738;2022-08-24T02:04:08;18.10;76.60
48589;DHT22;34369;51.174;6.738;2022-08-24T02:06:40;18.10;76.40
48589;DHT22;34369;51.174;6.738;2022-08-24T02:09:14;18.10;76.70
48589;DHT22;34369;51.174;6.738;2022-08-24T02:11:48;18.00;77.20
48589;DHT22;34369;51.174;6.738;2022-08-24T02:14:20;18.00;77.90
48589;DHT22;34369;51.174;6.738;2022-08-24T02:16:52;18.00;77.70
48589;DHT22;34369;51.174;6.738;2022-08-24T02:19:25;18.00;76.80
48589;DHT22;34369;51.174;6.738;2022-08-24T02:21:58;17.90;77.80
48589;DHT22;34369;51.174;6.738;2022-08-24T02:24:30;17.90;78.30
48589;DHT22;34369;51.174;6.738;2022-08-24T02:27:05;18.00;78.20
48589;DHT22;34369;51.174;6.738;2022-08-24T02:29:37;17.90;78.20
48589;DHT22;34369;51.174;6.738;2022-08-24T02:32:10;17.80;78.10
48589;DHT22;34369;51.174;6.738;2022-08-24T02:34:42;17.90;78.50
48589;DHT22;34369;51.174;6.738;2022-08-24T02:37:14;17.90;78.30
48589;DHT22;34369;51.174;6.738;2022-08-24T02:39:46;17.80;78.10
48589;DHT22;34369;51.174;6.738;2022-08-24T02:42:20;17.80;77.80
48589;DHT22;34369;51.174;6.738;2022-08-24T02:44:56;17.80;77.80
48589;DHT22;34369;51.174;6.738;2022-08-24T02:47:28;17.70;77.60
48589;DHT22;34369;51.174;6.738;2022-08-24T02:50:00;17.70;77.90
48589;DHT22;34369;51.174;6.738;2022-08-24T02:52:33;17.70;78.30
48589;DHT22;34369;51.174;6.738;2022-08-24T02:55:08;17.70;79.00
48589;DHT22;34369;51.174;6.738;2022-08-24T02:57:44;17.70;79.00
48589;DHT22;34369;51.174;6.738;2022-08-24T03:00:19;17.70;79.30
48589;DHT22;34369;51.174;6.738;2022-08-24T03:02:54;17.60;78.60
48589;DHT22;34369;51.174;6.738;2022-08-24T03:05:26;17.60;78.30
48589;DHT22;34369;51.174;6.738;2022-08-24T03:07:59;17.60;79.20
48589;DHT22;34369;51.174;6.738;2022-08-24T03:10:31;17.60;79.30
48589;DHT22;34369;51.174;6.738;2022-08-24T03:13:05;17.60;79.20
48589;DHT22;34369;51.174;6.738;2022-08-24T03:15:37;17.60;79.50
48589;DHT22;34369;51.174;6.738;2022-08-24T03:18:09;17.60;79.20
48589;DHT22;34369;51.174;6.738;2022-08-24T03:20:41;17.50;79.70
48589;DHT22;34369;51.174;6.738;2022-08-24T03:23:14;17.50;79.50
48589;DHT22;34369;51.174;6.738;2022-08-24T03:25:46;17.50;80.00
48589;DHT22;34369;51.174;6.738;2022-08-24T03:28:21;17.50;80.00
48589;DHT22;34369;51.174;6.738;2022-08-24T03:30:54;17.40;80.90
48589;DHT22;34369;51.174;6.738;2022-08-24T03:33:26;17.40;80.20
48589;DHT22;34369;51.174;6.738;2022-08-24T03:35:59;17.40;80.20
48589;DHT22;34369;51.174;6.738;2022-08-24T03:38:31;17.40;80.40
48589;DHT22;34369;51.174;6.738;2022-08-24T03:41:03;17.40;80.70
48589;DHT22;34369;51.174;6.738;2022-08-24T03:43:38;17.30;80.80
48589;DHT22;34369;51.174;6.738;2022-08-24T03:46:20;17.40;80.90
48589;DHT22;34369;51.174;6.738;2022-08-24T03:48:54;17.30;80.50
48589;DHT22;34369;51.174;6.738;2022-08-24T03:51:27;17.30;80.70
48589;DHT22;34369;51.174;6.738;2022-08-24T03:54:00;17.30;80.60
48589;DHT22;34369;51.174;6.738;2022-08-24T03:56:33;17.30;80.80
48589;DHT22;34369;51.174;6.738;2022-08-24T03:59:07;17.20;81.00
48589;DHT22;34369;51.174;6.738;2022-08-24T04:01:40;17.20;81.40
48589;DHT22;34369;51.174;6.738;2022-08-24T04:04:12;17.20;81.00
48589;DHT22;34369;51.174;6.738;2022-08-24T04:06:45;17.20;81.40
48589;DHT22;34369;51.174;6.738;2022-08-24T04:09:18;17.20;81.60
48589;DHT22;34369;51.174;6.738;2022-08-24T04:11:50;17.20;81.80
48589;DHT22;34369;51.174;6.738;2022-08-24T04:14:24;17.10;81.90
48589;DHT22;34369;51.174;6.738;2022-08-24T04:16:57;17.20;82.10
48589;DHT22;34369;51.174;6.738;2022-08-24T04:19:30;17.10;82.10
48589;DHT22;34369;51.174;6.738;2022-08-24T04:22:02;17.10;82.20
48589;DHT22;34369;51.174;6.738;2022-08-24T04:24:35;17.10;82.00
48589;DHT22;34369;51.174;6.738;2022-08-24T04:27:08;17.00;81.10
48589;DHT22;34369;51.174;6.738;2022-08-24T04:29:43;17.00;81.90
48589;DHT22;34369;51.174;6.738;2022-08-24T04:32:16;17.10;82.00
48589;DHT22;34369;51.174;6.738;2022-08-24T04:34:48;17.00;81.60
48589;DHT22;34369;51.174;6.738;2022-08-24T04:37:21;17.00;81.70
48589;DHT22;34369;51.174;6.738;2022-08-24T04:39:54;17.00;81.60
48589;DHT22;34369;51.174;6.738;2022-08-24T04:42:26;17.00;81.80
48589;DHT22;34369;51.174;6.738;2022-08-24T04:45:03;17.00;81.60
48589;DHT22;34369;51.174;6.738;2022-08-24T04:47:37;17.00;81.60
48589;DHT22;34369;51.174;6.738;2022-08-24T04:50:11;17.00;80.70
48589;DHT22;34369;51.174;6.738;2022-08-24T04:52:44;16.90;81.30
48589;DHT22;34369;51.174;6.738;2022-08-24T04:55:17;16.90;81.90
48589;DHT22;34369;51.174;6.738;2022-08-24T04:57:50;16.90;82.50
48589;DHT22;34369;51.174;6.738;2022-08-24T05:00:24;16.90;83.10
48589;DHT22;34369;51.174;6.738;2022-08-24T05:02:57;16.90;83.50
48589;DHT22;34369;51.174;6.738;2022-08-24T05:05:30;16.90;83.50
48589;DHT22;34369;51.174;6.738;2022-08-24T05:08:02;16.90;83.30
48589;DHT22;34369;51.174;6.738;2022-08-24T05:10:37;16.90;82.90
48589;DHT22;34369;51.174;6.738;2022-08-24T05:13:10;16.90;82.90
48589;DHT22;34369;51.174;6.738;2022-08-24T05:15:46;16.90;82.80
48589;DHT22;34369;51.174;6.738;2022-08-24T05:18:18;16.90;82.90
48589;DHT22;34369;51.174;6.738;2022-08-24T05:20:50;16.90;82.50
48589;DHT22;34369;51.174;6.738;2022-08-24T05:23:23;17.00;82.70
48589;DHT22;34369;51.174;6.738;2022-08-24T05:26:03;17.00;83.60
48589;DHT22;34369;51.174;6.738;2022-08-24T05:28:38;17.00;85.00
48589;DHT22;34369;51.174;6.738;2022-08-24T05:31:14;17.10;84.20
48589;DHT22;34369;51.174;6.738;2022-08-24T05:33:48;17.10;84.00
48589;DHT22;34369;51.174;6.738;2022-08-24T05:36:23;17.20;84.60
48589;DHT22;34369;51.174;6.738;2022-08-24T05:38:59;17.10;85.10
48589;DHT22;34369;51.174;6.738;2022-08-24T05:41:32;17.20;85.20
48589;DHT22;34369;51.174;6.738;2022-08-24T05:44:05;17.20;85.70
48589;DHT22;34369;51.174;6.738;2022-08-24T05:46:40;17.30;86.70
48589;DHT22;34369;51.174;6.738;2022-08-24T05:49:13;17.30;87.10
48589;DHT22;34369;51.174;6.738;2022-08-24T05:51:45;17.40;87.10
48589;DHT22;34369;51.174;6.738;2022-08-24T05:54:17;17.50;87.30
48589;DHT22;34369;51.174;6.738;2022-08-24T05:56:50;17.60;87.20
48589;DHT22;34369;51.174;6.738;2022-08-24T05:59:23;17.70;87.00
48589;DHT22;34369;51.174;6.738;2022-08-24T06:01:57;17.70;86.80
48589;DHT22;34369;51.174;6.738;2022-08-24T06:04:32;17.80;86.50
48589;DHT22;34369;51.174;6.738;2022-08-24T06:07:05;18.00;86.20
48589;DHT22;34369;51.174;6.738;2022-08-24T06:09:40;18.10;86.00
48589;DHT22;34369;51.174;6.738;2022-08-24T06:12:13;18.20;85.70
48589;DHT22;34369;51.174;6.738;2022-08-24T06:14:45;18.30;85.30
48589;DHT22;34369;51.174;6.738;2022-08-24T06:17:20;18.50;85.10
48589;DHT22;34369;51.174;6.738;2022-08-24T06:19:52;18.50;84.60
48589;DHT22;34369;51.174;6.738;2022-08-24T06:22:25;18.60;84.20
48589;DHT22;34369;51.174;6.738;2022-08-24T06:25:01;18.70;83.90
48589;DHT22;34369;51.174;6.738;2022-08-24T06:27:52;18.80;83.60
48589;DHT22;34369;51.174;6.738;2022-08-24T06:30:25;18.90;83.00
48589;DHT22;34369;51.174;6.738;2022-08-24T06:33:00;19.00;82.90
48589;DHT22;34369;51.174;6.738;2022-08-24T06:35:33;19.10;82.70
48589;DHT22;34369;51.174;6.738;2022-08-24T06:38:07;19.20;82.40
48589;DHT22;34369;51.174;6.738;2022-08-24T06:40:40;19.50;81.60
48589;DHT22;34369;51.174;6.738;2022-08-24T06:43:13;19.50;82.10
48589;DHT22;34369;51.174;6.738;2022-08-24T06:45:46;19.60;81.70
48589;DHT22;34369;51.174;6.738;2022-08-24T06:48:21;19.80;80.00
48589;DHT22;34369;51.174;6.738;2022-08-24T06:51:19;19.80;80.40
48589;DHT22;34369;51.174;6.738;2022-08-24T06:53:53;20.00;78.20
48589;DHT22;34369;51.174;6.738;2022-08-24T06:58:59;20.20;77.60
48589;DHT22;34369;51.174;6.738;2022-08-24T07:01:37;20.30;77.30
48589;DHT22;34369;51.174;6.738;2022-08-24T07:04:11;20.50;75.60
48589;DHT22;34369;51.174;6.738;2022-08-24T07:09:34;20.60;74.00
48589;DHT22;34369;51.174;6.738;2022-08-24T07:12:09;20.80;71.90
48589;DHT22;34369;51.174;6.738;2022-08-24T07:19:50;21.10;69.70
48589;DHT22;34369;51.174;6.738;2022-08-24T07:25:02;21.30;68.30
48589;DHT22;34369;51.174;6.738;2022-08-24T07:30:11;21.60;66.80
48589;DHT22;34369;51.174;6.738;2022-08-24T07:35:19;21.90;65.90
48589;DHT22;34369;51.174;6.738;2022-08-24T07:38:33;21.90;66.10
48589;DHT22;34369;51.174;6.738;2022-08-24T07:41:27;22.10;65.30
48589;DHT22;34369;51.174;6.738;2022-08-24T07:44:22;22.60;66.70
48589;DHT22;34369;51.174;6.738;2022-08-24T07:46:54;22.70;66.80
48589;DHT22;34369;51.174;6.738;2022-08-24T07:49:33;23.20;65.10
48589;DHT22;34369;51.174;6.738;2022-08-24T07:52:12;23.50;63.50
48589;DHT22;34369;51.174;6.738;2022-08-24T07:54:50;23.50;63.10
48589;DHT22;34369;51.174;6.738;2022-08-24T07:57:36;23.80;63.20
48589;DHT22;34369;51.174;6.738;2022-08-24T08:00:16;24.60;64.40
48589;DHT22;34369;51.174;6.738;2022-08-24T08:02:50;24.60;63.60
48589;DHT22;34369;51.174;6.738;2022-08-24T08:05:23;25.10;62.80
48589;DHT22;34369;51.174;6.738;2022-08-24T08:08:07;25.70;61.50
48589;DHT22;34369;51.174;6.738;2022-08-24T08:10:45;26.30;58.00
48589;DHT22;34369;51.174;6.738;2022-08-24T08:13:25;26.80;57.80
48589;DHT22;34369;51.174;6.738;2022-08-24T08:16:06;27.20;56.20
48589;DHT22;34369;51.174;6.738;2022-08-24T08:18:39;27.70;55.10
48589;DHT22;34369;51.174;6.738;2022-08-24T08:21:12;28.10;55.30
48589;DHT22;34369;51.174;6.738;2022-08-24T08:24:00;28.40;53.50
48589;DHT22;34369;51.174;6.738;2022-08-24T08:26:48;28.90;53.00
48589;DHT22;34369;51.174;6.738;2022-08-24T08:29:21;29.30;53.20
48589;DHT22;34369;51.174;6.738;2022-08-24T08:31:58;29.70;51.40
48589;DHT22;34369;51.174;6.738;2022-08-24T08:34:35;30.10;50.10
48589;DHT22;34369;51.174;6.738;2022-08-24T08:37:14;30.40;49.30
48589;DHT22;34369;51.174;6.738;2022-08-24T08:39:51;30.60;48.20
48589;DHT22;34369;51.174;6.738;2022-08-24T08:42:37;30.90;49.70
48589;DHT22;34369;51.174;6.738;2022-08-24T08:45:50;31.10;46.50
48589;DHT22;34369;51.174;6.738;2022-08-24T08:55:31;32.20;45.40
48589;DHT22;34369;51.174;6.738;2022-08-24T09:01:33;33.00;44.70
48589;DHT22;34369;51.174;6.738;2022-08-24T09:05:06;33.50;43.60
48589;DHT22;34369;51.174;6.738;2022-08-24T09:08:07;33.90;43.20
48589;DHT22;34369;51.174;6.738;2022-08-24T09:10:54;34.40;41.80
48589;DHT22;34369;51.174;6.738;2022-08-24T09:16:58;35.10;39.80
48589;DHT22;34369;51.174;6.738;2022-08-24T09:19:56;35.40;39.60
48589;DHT22;34369;51.174;6.738;2022-08-24T09:22:40;35.60;39.20
48589;DHT22;34369;51.174;6.738;2022-08-24T09:25:22;35.80;39.70
48589;DHT22;34369;51.174;6.738;2022-08-24T09:28:20;35.80;38.60
48589;DHT22;34369;51.174;6.738;2022-08-24T09:31:27;35.70;37.90
48589;DHT22;34369;51.174;6.738;2022-08-24T09:34:15;35.60;38.30
48589;DHT22;34369;51.174;6.738;2022-08-24T09:36:56;35.40;38.40
48589;DHT22;34369;51.174;6.738;2022-08-24T09:40:01;35.30;37.90
48589;DHT22;34369;51.174;6.738;2022-08-24T09:49:48;34.50;38.70
48589;DHT22;34369;51.174;6.738;2022-08-24T09:56:51;33.80;39.60
48589;DHT22;34369;51.174;6.738;2022-08-24T09:59:56;33.50;38.50
48589;DHT22;34369;51.174;6.738;2022-08-24T10:02:59;33.20;38.40
48589;DHT22;34369;51.174;6.738;2022-08-24T10:06:15;32.90;38.60
48589;DHT22;34369;51.174;6.738;2022-08-24T10:09:10;32.60;39.00
48589;DHT22;34369;51.174;6.738;2022-08-24T10:12:34;32.40;39.10
48589;DHT22;34369;51.174;6.738;2022-08-24T10:21:56;31.70;40.10
48589;DHT22;34369;51.174;6.738;2022-08-24T10:24:49;31.60;40.60
48589;DHT22;34369;51.174;6.738;2022-08-24T10:27:45;31.50;40.70
48589;DHT22;34369;51.174;6.738;2022-08-24T10:30:50;31.40;41.30
48589;DHT22;34369;51.174;6.738;2022-08-24T10:33:31;31.40;40.60
48589;DHT22;34369;51.174;6.738;2022-08-24T10:36:29;31.40;41.00
48589;DHT22;34369;51.174;6.738;2022-08-24T10:39:40;31.40;40.50
48589;DHT22;34369;51.174;6.738;2022-08-24T10:42:44;31.40;40.80
48589;DHT22;34369;51.174;6.738;2022-08-24T10:53:13;31.30;40.20
48589;DHT22;34369;51.174;6.738;2022-08-24T10:56:07;31.40;40.70
48589;DHT22;34369;51.174;6.738;2022-08-24T10:58:47;31.50;41.80
48589;DHT22;34369;51.174;6.738;2022-08-24T11:01:28;31.70;40.70
48589;DHT22;34369;51.174;6.738;2022-08-24T11:04:10;31.80;40.00
48589;DHT22;34369;51.174;6.738;2022-08-24T11:07:04;31.80;40.90
48589;DHT22;34369;51.174;6.738;2022-08-24T11:09:47;31.90;40.50
48589;DHT22;34369;51.174;6.738;2022-08-24T11:12:28;32.00;40.80
48589;DHT22;34369;51.174;6.738;2022-08-24T11:15:09;32.10;40.00
48589;DHT22;34369;51.174;6.738;2022-08-24T11:17:54;32.10;40.30
48589;DHT22;34369;51.174;6.738;2022-08-24T11:20:30;32.20;40.00
48589;DHT22;34369;51.174;6.738;2022-08-24T11:23:06;32.20;40.10
48589;DHT22;34369;51.174;6.738;2022-08-24T11:25:50;32.30;40.40
48589;DHT22;34369;51.174;6.738;2022-08-24T11:28:31;32.30;39.60
48589;DHT22;34369;51.174;6.738;2022-08-24T11:31:08;32.30;39.90
48589;DHT22;34369;51.174;6.738;2022-08-24T11:33:45;32.40;39.90
48589;DHT22;34369;51.174;6.738;2022-08-24T11:36:21;32.50;40.00
48589;DHT22;34369;51.174;6.738;2022-08-24T11:39:10;32.50;39.80
48589;DHT22;34369;51.174;6.738;2022-08-24T11:41:54;32.60;39.50
48589;DHT22;34369;51.174;6.738;2022-08-24T11:44:41;32.70;39.10
48589;DHT22;34369;51.174;6.738;2022-08-24T11:47:31;32.90;40.40
48589;DHT22;34369;51.174;6.738;2022-08-24T11:50:20;33.20;39.80
48589;DHT22;34369;51.174;6.738;2022-08-24T11:53:10;33.50;39.50
48589;DHT22;34369;51.174;6.738;2022-08-24T11:55:56;33.80;39.20
48589;DHT22;34369;51.174;6.738;2022-08-24T11:58:50;34.10;38.60
48589;DHT22;34369;51.174;6.738;2022-08-24T12:01:31;34.40;38.50
48589;DHT22;34369;51.174;6.738;2022-08-24T12:04:21;34.70;37.60
48589;DHT22;34369;51.174;6.738;2022-08-24T12:07:10;34.90;37.40
48589;DHT22;34369;51.174;6.738;2022-08-24T12:09:50;35.10;36.90
48589;DHT22;34369;51.174;6.738;2022-08-24T12:12:45;35.30;38.40
48589;DHT22;34369;51.174;6.738;2022-08-24T12:15:31;35.40;37.80
48589;DHT22;34369;51.174;6.738;2022-08-24T12:18:17;35.50;37.50
48589;DHT22;34369;51.174;6.738;2022-08-24T12:20:55;35.60;36.30
48589;DHT22;34369;51.174;6.738;2022-08-24T12:23:34;35.60;37.40
48589;DHT22;34369;51.174;6.738;2022-08-24T12:26:13;35.60;36.80
48589;DHT22;34369;51.174;6.738;2022-08-24T12:28:52;35.50;37.30
48589;DHT22;34369;51.174;6.738;2022-08-24T12:31:36;35.50;36.70
48589;DHT22;34369;51.174;6.738;2022-08-24T12:34:13;35.50;36.00
48589;DHT22;34369;51.174;6.738;2022-08-24T12:36:55;35.50;36.10
48589;DHT22;34369;51.174;6.738;2022-08-24T12:39:35;35.60;35.40
48589;DHT22;34369;51.174;6.738;2022-08-24T12:42:16;35.60;35.30
48589;DHT22;34369;51.174;6.738;2022-08-24T12:44:53;35.70;35.50
48589;DHT22;34369;51.174;6.738;2022-08-24T12:47:33;35.80;36.10
48589;DHT22;34369;51.174;6.738;2022-08-24T12:50:09;35.90;35.00
48589;DHT22;34369;51.174;6.738;2022-08-24T12:53:23;36.00;35.10
48589;DHT22;34369;51.174;6.738;2022-08-24T12:56:44;36.10;35.60
48589;DHT22;34369;51.174;6.738;2022-08-24T12:59:44;36.20;35.70
48589;DHT22;34369;51.174;6.738;2022-08-24T13:02:29;36.30;34.70
48589;DHT22;34369;51.174;6.738;2022-08-24T13:05:10;36.40;35.90
48589;DHT22;34369;51.174;6.738;2022-08-24T13:07:46;36.40;36.00
48589;DHT22;34369;51.174;6.738;2022-08-24T13:10:40;36.30;35.40
48589;DHT22;34369;51.174;6.738;2022-08-24T13:13:21;36.40;35.10
48589;DHT22;34369;51.174;6.738;2022-08-24T13:16:08;36.40;35.00
48589;DHT22;34369;51.174;6.738;2022-08-24T13:18:48;36.50;35.40
48589;DHT22;34369;51.174;6.738;2022-08-24T13:21:52;36.50;35.20
48589;DHT22;34369;51.174;6.738;2022-08-24T13:24:52;36.50;34.70
48589;DHT22;34369;51.174;6.738;2022-08-24T13:33:32;36.10;35.20
48589;DHT22;34369;51.174;6.738;2022-08-24T13:39:42;35.60;35.30
48589;DHT22;34369;51.174;6.738;2022-08-24T13:42:54;35.40;34.70
48589;DHT22;34369;51.174;6.738;2022-08-24T13:45:36;35.20;35.60
48589;DHT22;34369;51.174;6.738;2022-08-24T13:48:30;35.20;35.60
48589;DHT22;34369;51.174;6.738;2022-08-24T13:51:24;35.20;35.30
48589;DHT22;34369;51.174;6.738;2022-08-24T13:54:16;35.20;35.20
48589;DHT22;34369;51.174;6.738;2022-08-24T13:57:07;35.20;34.90
48589;DHT22;34369;51.174;6.738;2022-08-24T14:03:40;35.30;35.60
48589;DHT22;34369;51.174;6.738;2022-08-24T14:06:32;35.40;36.00
48589;DHT22;34369;51.174;6.738;2022-08-24T14:09:28;35.40;35.20
48589;DHT22;34369;51.174;6.738;2022-08-24T14:12:19;35.40;34.70
48589;DHT22;34369;51.174;6.738;2022-08-24T14:15:06;35.50;34.60
48589;DHT22;34369;51.174;6.738;2022-08-24T14:17:51;35.50;33.50
48589;DHT22;34369;51.174;6.738;2022-08-24T14:23:48;35.50;35.40
48589;DHT22;34369;51.174;6.738;2022-08-24T14:26:49;35.40;33.10
48589;DHT22;34369;51.174;6.738;2022-08-24T14:29:32;35.40;34.00
48589;DHT22;34369;51.174;6.738;2022-08-24T14:32:33;35.30;34.50
48589;DHT22;34369;51.174;6.738;2022-08-24T14:44:46;35.30;35.00
48589;DHT22;34369;51.174;6.738;2022-08-24T14:47:34;35.30;34.30
48589;DHT22;34369;51.174;6.738;2022-08-24T14:50:15;35.40;35.00
48589;DHT22;34369;51.174;6.738;2022-08-24T14:53:06;35.50;34.70
48589;DHT22;34369;51.174;6.738;2022-08-24T14:55:54;35.50;33.80
48589;DHT22;34369;51.174;6.738;2022-08-24T14:58:50;35.50;32.80
48589;DHT22;34369;51.174;6.738;2022-08-24T15:01:40;35.50;34.40
48589;DHT22;34369;51.174;6.738;2022-08-24T15:04:29;35.50;35.00
48589;DHT22;34369;51.174;6.738;2022-08-24T15:07:26;35.60;34.50
48589;DHT22;34369;51.174;6.738;2022-08-24T15:10:02;35.60;33.60
48589;DHT22;34369;51.174;6.738;2022-08-24T15:12:46;35.50;34.00
48589;DHT22;34369;51.174;6.738;2022-08-24T15:15:28;35.60;33.50
48589;DHT22;34369;51.174;6.738;2022-08-24T15:18:06;35.70;33.10
48589;DHT22;34369;51.174;6.738;2022-08-24T15:20:59;35.60;33.50
48589;DHT22;34369;51.174;6.738;2022-08-24T15:23:47;35.60;33.40
48589;DHT22;34369;51.174;6.738;2022-08-24T15:26:39;35.60;32.90
48589;DHT22;34369;51.174;6.738;2022-08-24T15:29:23;35.60;32.90
48589;DHT22;34369;51.174;6.738;2022-08-24T15:32:06;35.60;32.40
48589;DHT22;34369;51.174;6.738;2022-08-24T15:34:44;35.50;33.10
48589;DHT22;34369;51.174;6.738;2022-08-24T15:37:27;35.40;32.30
48589;DHT22;34369;51.174;6.738;2022-08-24T15:40:10;35.30;32.40
48589;DHT22;34369;51.174;6.738;2022-08-24T15:42:52;35.30;32.80
48589;DHT22;34369;51.174;6.738;2022-08-24T15:45:24;35.20;32.80
48589;DHT22;34369;51.174;6.738;2022-08-24T15:48:00;35.20;32.80
48589;DHT22;34369;51.174;6.738;2022-08-24T15:50:40;35.10;33.10
48589;DHT22;34369;51.174;6.738;2022-08-24T15:53:32;35.10;33.30
48589;DHT22;34369;51.174;6.738;2022-08-24T15:56:25;35.10;33.20
48589;DHT22;34369;51.174;6.738;2022-08-24T15:59:08;35.10;33.40
48589;DHT22;34369;51.174;6.738;2022-08-24T16:01:41;35.00;33.30
48589;DHT22;34369;51.174;6.738;2022-08-24T16:04:43;35.00;33.50
48589;DHT22;34369;51.174;6.738;2022-08-24T16:07:22;35.00;33.60
48589;DHT22;34369;51.174;6.738;2022-08-24T16:10:07;35.00;33.00
48589;DHT22;34369;51.174;6.738;2022-08-24T16:12:41;35.00;33.20
48589;DHT22;34369;51.174;6.738;2022-08-24T16:15:16;35.00;33.30
48589;DHT22;34369;51.174;6.738;2022-08-24T16:17:52;35.00;33.20
48589;DHT22;34369;51.174;6.738;2022-08-24T16:20:32;35.00;32.80
48589;DHT22;34369;51.174;6.738;2022-08-24T16:23:06;35.00;32.30
48589;DHT22;34369;51.174;6.738;2022-08-24T16:25:42;35.00;32.70
48589;DHT22;34369;51.174;6.738;2022-08-24T16:28:33;34.90;32.80
48589;DHT22;34369;51.174;6.738;2022-08-24T16:31:06;34.90;32.90
48589;DHT22;34369;51.174;6.738;2022-08-24T16:33:42;34.90;33.80
48589;DHT22;34369;51.174;6.738;2022-08-24T16:36:17;34.80;34.10
48589;DHT22;34369;51.174;6.738;2022-08-24T16:38:50;34.80;33.60
48589;DHT22;34369;51.174;6.738;2022-08-24T16:41:23;34.80;33.80
48589;DHT22;34369;51.174;6.738;2022-08-24T16:43:55;34.80;33.60
48589;DHT22;34369;51.174;6.738;2022-08-24T16:46:27;34.70;33.50
48589;DHT22;34369;51.174;6.738;2022-08-24T16:48:59;34.70;34.10
48589;DHT22;34369;51.174;6.738;2022-08-24T16:51:33;34.60;33.30
48589;DHT22;34369;51.174;6.738;2022-08-24T16:54:05;34.50;34.00
48589;DHT22;34369;51.174;6.738;2022-08-24T16:56:40;34.40;33.20
48589;DHT22;34369;51.174;6.738;2022-08-24T16:59:16;34.30;33.00
48589;DHT22;34369;51.174;6.738;2022-08-24T17:01:51;34.20;33.10
48589;DHT22;34369;51.174;6.738;2022-08-24T17:04:23;34.10;33.00
48589;DHT22;34369;51.174;6.738;2022-08-24T17:06:57;34.10;33.30
48589;DHT22;34369;51.174;6.738;2022-08-24T17:09:29;33.90;33.70
48589;DHT22;34369;51.174;6.738;2022-08-24T17:12:02;33.80;33.80
48589;DHT22;34369;51.174;6.738;2022-08-24T17:14:38;33.70;33.90
48589;DHT22;34369;51.174;6.738;2022-08-24T17:17:11;33.50;33.70
48589;DHT22;34369;51.174;6.738;2022-08-24T17:19:45;33.50;34.30
48589;DHT22;34369;51.174;6.738;2022-08-24T17:22:21;33.40;33.80
48589;DHT22;34369;51.174;6.738;2022-08-24T17:24:54;33.20;34.00
48589;DHT22;34369;51.174;6.738;2022-08-24T17:27:30;33.10;33.90
48589;DHT22;34369;51.174;6.738;2022-08-24T17:30:04;32.90;33.60
48589;DHT22;34369;51.174;6.738;2022-08-24T17:32:37;32.80;34.30
48589;DHT22;34369;51.174;6.738;2022-08-24T17:35:09;32.70;34.40
48589;DHT22;34369;51.174;6.738;2022-08-24T17:37:44;32.60;34.70
48589;DHT22;34369;51.174;6.738;2022-08-24T17:40:20;32.40;34.90
48589;DHT22;34369;51.174;6.738;2022-08-24T17:42:53;32.30;35.00
48589;DHT22;34369;51.174;6.738;2022-08-24T17:45:26;32.10;35.20
48589;DHT22;34369;51.174;6.738;2022-08-24T17:47:58;32.00;35.50
48589;DHT22;34369;51.174;6.738;2022-08-24T17:50:30;31.90;35.50
48589;DHT22;34369;51.174;6.738;2022-08-24T17:53:03;31.70;35.50
48589;DHT22;34369;51.174;6.738;2022-08-24T17:55:35;31.60;35.80
48589;DHT22;34369;51.174;6.738;2022-08-24T17:58:08;31.50;35.70
48589;DHT22;34369;51.174;6.738;2022-08-24T18:00:40;31.40;36.20
48589;DHT22;34369;51.174;6.738;2022-08-24T18:03:12;31.30;36.40
48589;DHT22;34369;51.174;6.738;2022-08-24T18:05:45;31.20;36.50
48589;DHT22;34369;51.174;6.738;2022-08-24T18:08:19;31.10;36.70
48589;DHT22;34369;51.174;6.738;2022-08-24T18:10:51;31.00;37.10